Latest Weather Observations for Narrandera Airport

IDN60801

Issued at 9:33 am EDT Thursday 18 December 2014 (issued every 30 minutes, with the page automatically refreshed every 10 minutes)

About weather observations | Map of weather stations | Latest weather observations for NSW | Other Formats
Station Details ID: 074148 Name: NARRANDERA AIRPORT AWS Lat: -34.70 Lon: 146.51 Height: 145.0 m
Data from the previous 72 hours. | See also: Recent months for locations in New South Wales
Date/Time
EDT
Temp
°C
App
Temp
°C
Dew
Point
Rel
Hum
%
Delta-T
°C
Wind Press
QNH
hPa
Press
MSL
hPa
Rain
since 9 am
mm
Dir
 
Spd
km/h
Gust
km/h
Spd
kts
Gust
kts
18/09:30am 24.5 21.8 2.6 24 10.6 NNE 6 13 3 7 1008.6 1007.9 0.0
18/09:00am 22.8 20.3 4.8 31 9.0 ENE 7 13 4 7 1008.7 1008.0 0.0
18/08:30am 21.3 18.4 4.8 34 8.1 NE 9 15 5 8 1008.6 1007.9 0.0
18/08:00am 19.8 15.9 1.3 29 8.5 ENE 11 15 6 8 1008.4 1007.7 0.0
18/07:30am 18.4 15.2 1.0 31 7.8 ESE 7 11 4 6 1008.2 1007.5 0.0
18/07:00am 15.6 12.0 3.1 43 5.7 ESE 11 13 6 7 1008.2 1007.5 0.0
18/06:30am 13.0 10.5 4.7 57 3.9 SE 7 11 4 6 1008.1 1007.4 0.0
18/06:00am 11.1 8.8 5.0 66 2.8 SE 6 7 3 4 1007.7 1007.0 0.0
18/05:30am 10.9 9.8 5.2 68 2.6 CALM 0 0 0 0 1007.3 1006.6 0.0
18/05:00am 11.1 9.9 4.6 64 3.0 CALM 0 0 0 0 1007.3 1006.6 0.0
18/04:30am 11.1 10.1 5.4 68 2.6 CALM 0 0 0 0 1007.0 1006.3 0.0
18/04:00am 12.1 11.0 5.3 63 3.2 CALM 0 0 0 0 1006.8 1006.1 0.0
18/03:30am 12.5 11.4 5.0 60 3.5 CALM 0 0 0 0 1006.8 1006.1 0.0
18/03:00am 13.0 11.8 4.7 57 3.9 CALM 0 0 0 0 1006.6 1005.9 0.0
18/02:30am 13.1 12.0 5.3 59 3.7 CALM 0 0 0 0 1006.7 1006.0 0.0
18/02:00am 14.0 13.0 5.6 57 4.0 CALM 0 0 0 0 1006.9 1006.2 0.0
18/01:30am 13.7 12.7 5.8 59 3.8 CALM 0 0 0 0 1006.9 1006.2 0.0
18/01:00am 14.4 13.6 6.7 60 3.8 CALM 0 0 0 0 1007.2 1006.5 0.0
18/12:30am 14.3 12.9 3.7 49 4.9 CALM 0 0 0 0 1007.2 1006.5 0.0
18/12:00am 15.3 14.1 4.7 49 5.0 CALM 0 0 0 0 1007.0 1006.4 0.0
 
Date/Time
EDT
Temp
°C
App
Temp
°C
Dew
Point
Rel
Hum
%
Delta-T
°C
Wind Press
QNH
hPa
Press
MSL
hPa
Rain
since 9 am
mm
Dir
 
Spd
km/h
Gust
km/h
Spd
kts
Gust
kts
17/11:30pm 15.7 14.5 4.4 47 5.3 CALM 0 0 0 0 1006.9 1006.2 0.0
17/11:00pm 16.9 15.4 3.2 40 6.4 CALM 0 0 0 0 1007.2 1006.5 0.0
17/10:30pm 17.1 15.7 3.8 41 6.2 CALM 0 0 0 0 1007.2 1006.5 0.0
17/09:30pm 20.3 17.3 0.7 27 8.9 WSW 6 9 3 5 1007.4 1006.7 0.0
17/09:00pm 22.5 19.0 -1.6 20 10.6 WSW 7 9 4 5 1007.2 1006.5 0.0
17/08:30pm 23.4 19.9 -1.5 19 11.1 W 7 11 4 6 1007.2 1006.5 0.0
17/08:00pm 25.0 21.1 -1.7 17 12.0 WSW 9 13 5 7 1006.7 1006.0 0.0
17/07:30pm 25.1 22.0 -2.5 16 12.2 SSW 4 7 2 4 1006.2 1005.5 0.0
17/07:00pm 26.6 22.2 -2.1 15 13.0 SW 11 15 6 8 1005.8 1005.1 0.0
17/06:30pm 26.5 22.4 -3.1 14 13.2 S 9 13 5 7 1005.6 1004.9 0.0
17/06:00pm 26.7 22.2 -3.0 14 13.2 WSW 11 20 6 11 1005.7 1005.0 0.0
17/05:30pm 26.3 21.8 -3.3 14 13.0 S 11 19 6 10 1005.8 1005.1 0.0
17/05:00pm 26.7 22.6 -3.0 14 13.2 WSW 9 15 5 8 1006.0 1005.3 0.0
17/04:30pm 26.7 21.4 -4.0 13 13.4 WSW 15 22 8 12 1006.3 1005.6 0.0
17/04:00pm 25.9 20.2 -3.6 14 12.9 SSW 17 24 9 13 1006.5 1005.8 0.0
17/03:30pm 26.2 21.1 -1.6 16 12.6 SW 15 20 8 11 1006.7 1006.0 0.0
17/03:00pm 25.1 19.8 -3.3 15 12.4 SW 15 20 8 11 1006.9 1006.2 0.0
17/02:30pm 25.3 20.0 -3.2 15 12.5 WSW 15 22 8 12 1007.2 1006.5 0.0
17/02:00pm 24.6 19.1 -2.0 17 11.9 SSW 17 28 9 15 1007.2 1006.5 0.0
17/01:30pm 24.2 20.2 -2.4 17 11.7 SW 9 20 5 11 1007.7 1007.0 0.0
17/01:00pm 23.7 17.9 -1.3 19 11.2 SSW 19 28 10 15 1007.8 1007.1 0.0
17/12:30pm 22.6 17.6 -1.5 20 10.6 SSW 15 26 8 14 1008.2 1007.5 0.0
17/12:00pm 22.7 18.1 -1.4 20 10.7 WSW 13 24 7 13 1008.4 1007.7 0.0
17/11:30am 21.3 15.4 -1.9 21 10.1 SW 19 30 10 16 1008.6 1007.9 0.0
17/11:00am 20.9 15.5 -1.6 22 9.8 W 17 26 9 14 1008.6 1007.9 0.0
17/10:30am 20.2 15.3 -0.4 25 9.1 SW 15 26 8 14 1008.7 1008.0 0.0
17/10:00am 19.6 14.4 0.1 27 8.7 SSW 17 28 9 15 1008.7 1008.0 0.0
17/09:30am 18.9 13.2 -0.5 27 8.5 SSW 19 30 10 16 1008.6 1007.9 0.0
17/09:00am 17.8 11.3 0.5 31 7.6 SW 24 32 13 17 1008.6 1007.9 0.2
17/08:30am 17.1 10.9 1.9 36 6.9 SSW 24 32 13 17 1008.4 1007.7 0.2
17/08:00am 15.9 9.6 1.6 38 6.4 SSW 24 33 13 18 1008.3 1007.6 0.2
17/07:30am 15.0 9.8 2.5 43 5.6 SW 19 28 10 15 1007.9 1007.2 0.2
17/07:00am 13.8 10.3 3.3 49 4.8 SW 11 15 6 8 1007.6 1006.9 0.2
17/06:30am 13.2 9.3 3.3 51 4.5 SW 13 17 7 9 1007.1 1006.4 0.2
17/06:00am 12.9 8.9 3.0 51 4.4 SW 13 20 7 11 1006.9 1006.2 0.2
17/05:30am 13.5 8.8 3.0 49 4.7 SW 17 20 9 11 1006.5 1005.8 0.2
17/05:00am 14.1 10.1 3.0 47 5.0 SW 13 19 7 10 1006.3 1005.6 0.2
17/04:30am 14.7 9.6 2.9 45 5.3 SSW 19 28 10 15 1005.9 1005.2 0.2
17/04:00am 15.1 10.5 3.9 47 5.2 SSW 17 20 9 11 1005.7 1005.0 0.2
17/03:30am 16.0 11.5 4.4 46 5.5 SSW 17 28 9 15 1005.5 1004.8 0.2
17/03:00am 16.1 11.7 2.5 40 6.2 SSW 15 19 8 10 1005.4 1004.7 0.2
17/02:30am 16.9 12.6 1.0 34 7.0 SW 13 17 7 9 1005.1 1004.5 0.2
17/02:00am 17.6 13.3 0.7 32 7.5 SW 13 22 7 12 1004.9 1004.3 0.2
17/01:30am 18.3 15.0 2.2 34 7.4 SW 9 13 5 7 1004.9 1004.3 0.2
17/01:00am 19.3 13.9 2.2 32 7.9 SW 20 32 11 17 1004.9 1004.3 0.2
17/12:30am 20.2 13.7 2.5 31 8.3 SW 26 35 14 19 1004.8 1004.2 0.2
17/12:13am 20.8 14.0 3.1 31 8.4 SW 28 50 15 27 1004.4 1003.8 0.2
17/12:00am 21.0 14.5 2.8 30 8.7 SW 26 39 14 21 1004.0 1003.4 0.2
 
Date/Time
EDT
Temp
°C
App
Temp
°C
Dew
Point
Rel
Hum
%
Delta-T
°C
Wind Press
QNH
hPa
Press
MSL
hPa
Rain
since 9 am
mm
Dir
 
Spd
km/h
Gust
km/h
Spd
kts
Gust
kts
16/11:30pm 22.0 15.8 6.3 36 8.0 SW 28 46 15 25 1003.8 1003.2 0.2
16/11:21pm 22.2 16.1 6.4 36 8.1 SW 28 46 15 25 1003.8 1003.2 0.2
16/11:00pm 22.6 17.4 7.2 37 8.1 SW 24 39 13 21 1003.3 1002.7 0.2
16/10:32pm 23.3 16.1 7.8 37 8.2 SW 35 54 19 29 1002.7 1002.0 0.2
16/10:30pm 23.3 16.1 7.8 37 8.2 SW 35 50 19 27 1002.6 1001.9 0.2
16/10:00pm 23.9 17.1 7.9 36 8.5 SW 33 54 18 29 1001.9 1001.2 0.2
16/09:30pm 25.8 19.1 8.3 33 9.5 SW 33 59 18 32 1000.4 999.7 0.2
16/09:14pm 28.2 21.9 5.7 24 11.8 SW 28 57 15 31 999.7 999.0 0.2
16/09:00pm 30.5 24.5 1.0 15 14.6 WSW 22 35 12 19 999.0 998.3 0.2
16/08:42pm 31.6 24.4 0.9 14 15.1 WSW 28 46 15 25 998.4 997.7 0.2
16/08:30pm 32.4 26.5 1.5 14 15.5 WSW 22 37 12 20 997.8 997.2 0.2
16/08:00pm 33.2 27.7 2.1 14 15.9 WSW 20 33 11 18 997.4 996.8 0.2
16/07:30pm 34.0 27.2 0.6 12 16.7 W 26 39 14 21 997.1 996.5 0.2
16/07:00pm 34.7 27.6 1.1 12 17.1 W 28 46 15 25 996.9 996.3 0.2
16/06:30pm 35.1 27.8 0.2 11 17.4 W 28 46 15 25 996.7 996.1 0.2
16/06:06pm 35.8 27.7 -0.5 10 18.0 W 32 50 17 27 996.6 995.9 0.2
16/06:00pm 36.1 27.0 -0.3 10 18.2 W 37 54 20 29 996.6 995.9 0.2
16/05:33pm 36.3 27.3 -0.2 10 18.2 W 37 57 20 31 996.7 996.1 0.2
16/05:30pm 36.4 27.0 -0.1 10 18.3 WNW 39 59 21 32 996.7 996.1 0.2
16/05:03pm 36.5 26.9 -1.4 9 18.6 W 39 57 21 31 996.9 996.3 0.2
16/05:00pm 36.4 27.2 -1.5 9 18.7 W 37 52 20 28 996.9 996.3 0.2
16/04:30pm 36.7 26.4 -1.3 9 18.7 W 43 61 23 33 997.2 996.6 0.2
16/04:13pm 36.7 28.5 -1.3 9 18.7 W 32 54 17 29 997.4 996.8 0.2
16/04:00pm 36.7 28.3 -1.3 9 18.8 WNW 33 44 18 24 997.5 996.9 0.2
16/03:31pm 36.1 27.6 -1.7 9 18.4 W 33 52 18 28 998.3 997.6 0.2
16/03:30pm 36.1 27.0 -3.3 8 18.7 W 35 52 19 28 998.3 997.6 0.2
16/03:01pm 35.5 27.5 -5.5 7 18.7 W 28 46 15 25 998.7 998.0 0.2
16/03:00pm 35.7 27.7 -5.4 7 18.9 W 28 43 15 23 998.7 998.0 0.2
16/02:43pm 35.3 26.5 -5.7 7 18.6 WSW 32 52 17 28 999.0 998.3 0.2
16/02:30pm 35.2 27.0 -7.7 6 18.8 WSW 28 44 15 24 999.1 998.4 0.2
16/02:02pm 34.9 26.3 -8.0 6 18.7 WSW 30 48 16 26 999.4 998.7 0.2
16/02:00pm 35.4 27.2 -7.6 6 19.1 W 28 43 15 23 999.5 998.8 0.2
16/01:31pm 34.7 25.1 -8.1 6 18.6 W 35 54 19 29 999.5 998.8 0.2
16/01:30pm 34.6 24.7 -8.2 6 18.6 W 37 54 20 29 999.5 998.8 0.2
16/01:21pm 34.6 24.1 -10.5 5 18.8 WNW 39 56 21 30 999.7 999.0 0.2
16/01:15pm 35.0 24.7 -7.9 6 18.8 WNW 39 57 21 31 999.5 998.8 0.2
16/01:00pm 34.4 24.5 -8.3 6 18.6 W 37 61 20 33 999.7 999.0 0.2
16/12:48pm 34.1 24.7 -6.5 7 18.0 W 35 54 19 29 999.8 999.1 0.2
16/12:30pm 33.7 25.3 -2.1 10 17.0 WNW 32 44 17 24 999.8 999.1 0.2
16/12:00pm 32.9 25.0 4.6 17 15.0 W 35 48 19 26 1000.0 999.3 0.2
16/11:30am 31.9 26.2 8.2 23 13.2 W 28 48 15 26 1000.0 999.3 0.2
16/11:03am 31.5 25.4 6.5 21 13.5 WSW 28 46 15 25 1000.2 999.5 0.2
16/11:00am 32.2 26.4 7.8 22 13.6 WSW 28 43 15 23 1000.1 999.4 0.2
16/10:30am 31.3 25.7 7.1 22 13.2 WSW 26 35 14 19 999.9 999.2 0.2
16/10:00am 31.1 26.5 8.2 24 12.8 WSW 22 35 12 19 999.5 998.8 0.2
16/09:30am 31.0 26.6 10.4 28 11.8 W 24 35 13 19 999.3 998.6 0.0
16/09:00am 30.6 24.7 8.9 26 12.2 NNW 30 37 16 20 999.2 998.5 4.2
16/08:30am 29.1 22.5 8.7 28 11.3 N 33 48 18 26 998.9 998.2 4.2
16/08:00am 26.7 22.4 12.0 40 8.6 N 26 35 14 19 999.1 998.4 4.2
16/07:30am 25.4 21.4 10.4 39 8.4 NNW 22 28 12 15 999.8 999.1 3.4
16/07:00am 25.8 22.5 11.6 41 8.2 NNW 20 28 11 15 999.3 998.6 3.4
16/06:30am 27.3 20.9 9.2 32 10.0 N 33 44 18 24 998.4 997.7 1.6
16/06:00am 26.6 21.2 9.5 34 9.5 N 28 37 15 20 998.3 997.6 1.6
16/05:35am 25.7 20.4 9.9 37 8.8 NNE 28 46 15 25 997.9 997.3 1.6
16/05:30am 25.3 21.1 11.1 41 8.0 NNE 24 46 13 25 997.9 997.3 1.6
16/05:06am 23.2 17.3 10.6 45 7.0 N 32 43 17 23 998.7 998.0 1.6
16/05:00am 28.2 21.3 6.3 25 11.7 N 32 44 17 24 999.2 998.5 0.4
16/04:30am 27.4 20.6 6.8 27 11.0 NNE 32 43 17 23 997.9 997.3 0.4
16/04:00am 27.7 20.7 7.0 27 11.1 NNE 33 43 18 23 998.1 997.4 0.4
16/03:30am 27.8 22.3 7.6 28 10.9 NNE 26 33 14 18 998.7 998.0 0.4
16/03:00am 27.0 22.0 8.0 30 10.4 NNE 24 32 13 17 999.1 998.4 0.4
16/02:30am 27.7 22.4 8.6 30 10.5 NNE 26 35 14 19 999.3 998.6 0.4
16/02:00am 26.3 22.3 9.2 34 9.5 NNE 20 26 11 14 999.9 999.2 0.4
16/01:30am 26.2 21.9 9.5 35 9.2 NNE 22 28 12 15 1000.5 999.8 0.4
16/01:00am 23.3 20.9 12.6 51 6.2 NE 17 20 9 11 1001.3 1000.6 0.4
16/12:30am 23.6 21.7 12.9 51 6.2 NE 15 19 8 10 1001.7 1001.0 0.4
16/12:00am 22.9 21.0 14.2 58 5.2 ENE 17 20 9 11 1002.3 1001.6 0.4
 
Date/Time
EDT
Temp
°C
App
Temp
°C
Dew
Point
Rel
Hum
%
Delta-T
°C
Wind Press
QNH
hPa
Press
MSL
hPa
Rain
since 9 am
mm
Dir
 
Spd
km/h
Gust
km/h
Spd
kts
Gust
kts
15/11:30pm 23.4 21.7 14.7 58 5.2 NE 17 22 9 12 1003.1 1002.5 0.4
15/11:00pm 23.6 20.9 14.6 57 5.4 ENE 22 32 12 17 1002.9 1002.3 0.4
15/10:30pm 23.8 21.6 14.8 57 5.4 ENE 20 26 11 14 1003.5 1002.9 0.4
15/10:00pm 23.8 21.6 15.0 57 5.3 NE 20 26 11 14 1004.3 1003.7 0.4
15/09:30pm 24.6 23.0 15.0 55 5.8 ENE 17 26 9 14 1003.8 1003.2 0.4
15/09:00pm 23.9 22.0 15.1 58 5.3 NE 19 26 10 14 1004.3 1003.7 0.4
15/08:41pm 23.8 18.8 15.0 57 5.3 NW 35 56 19 30 1006.4 1005.7 0.4
15/08:38pm 24.0 17.9 14.1 54 5.9 WNW 39 57 21 31 1006.5 1005.8 0.4
15/08:30pm 29.2 25.1 11.3 33 10.4 N 24 54 13 29 1006.0 1005.3 0.0
15/08:24pm 29.9 26.7 9.9 29 11.3 ENE 17 30 9 16 1004.2 1003.6 0.0
15/08:00pm 31.6 27.2 7.3 22 13.4 E 20 32 11 17 1002.2 1001.5 0.0
15/07:30pm 32.4 26.3 6.6 20 14.1 ENE 28 37 15 20 1002.4 1001.7 0.0
15/07:00pm 34.1 30.2 8.7 21 14.5 ENE 19 26 10 14 1002.4 1001.7 0.0
15/06:30pm 34.0 29.9 7.9 20 14.6 E 19 24 10 13 1002.6 1001.9 0.0
15/06:00pm 35.6 33.0 4.0 14 16.9 NE 7 17 4 9 1002.8 1002.2 0.0
15/05:30pm 35.9 32.7 7.0 17 16.1 SE 13 19 7 10 1002.9 1002.3 0.0
15/05:00pm 34.9 31.9 6.2 17 15.8 SE 11 22 6 12 1003.5 1002.9 0.0
15/04:30pm 36.4 31.8 3.6 13 17.4 NNW 17 28 9 15 1003.8 1003.2 0.0
15/04:00pm 35.5 28.7 2.9 13 17.1 WNW 28 39 15 21 1004.1 1003.5 0.0
15/03:30pm 36.5 30.7 2.5 12 17.7 WNW 22 32 12 17 1004.5 1003.9 0.0
15/03:00pm 36.9 31.8 4.0 13 17.7 NNW 20 30 11 16 1004.9 1004.3 0.0
15/02:30pm 37.2 31.9 3.1 12 18.0 WNW 20 33 11 18 1005.5 1004.8 0.0
15/02:00pm 37.2 31.7 1.8 11 18.4 NNW 20 30 11 16 1006.0 1005.3 0.0
15/01:30pm 36.1 31.2 2.2 12 17.6 NNW 17 33 9 18 1006.4 1005.7 0.0
15/01:00pm 36.2 30.2 1.1 11 17.9 NNW 22 33 12 18 1006.8 1006.1 0.0
15/12:30pm 35.1 29.9 2.6 13 16.8 NNW 19 30 10 16 1007.3 1006.6 0.0
15/12:00pm 35.6 29.7 4.0 14 16.8 NW 24 35 13 19 1007.6 1006.9 0.0
15/11:30am 34.4 28.0 3.1 14 16.3 NNW 26 39 14 21 1007.9 1007.2 0.0
15/11:00am 33.6 27.4 4.3 16 15.5 NNW 26 35 14 19 1008.2 1007.5 0.0
15/10:30am 32.6 26.4 4.4 17 14.8 NNW 26 39 14 21 1008.6 1007.9 0.0
15/10:00am 31.9 26.1 4.6 18 14.4 N 24 35 13 19 1008.7 1008.0 0.0

Other Formats:

Comma delimited format used in spreadsheet applications
http://www.bom.gov.au/fwo/IDN60801/IDN60801.95706.axf

JavaScript Object Notation format (JSON) in row-major order
http://www.bom.gov.au/fwo/IDN60801/IDN60801.95706.json